Time;durP1;ratioP1;P1;durP2;ratioP2;P2;SDS_P1;SDS_P2;PMS_P1;PMS_P2;Temp;Humidity;BMP_temperature;BMP_pressure;BME280_temperature;BME280_humidity;BME280_pressure;Samples;Min_cycle;Max_cycle;Signal;HPM_P1;HPM_P2
2022/11/30 00:01:51;;;;;;;;;;;;;;;-143.57;100.00;51394.44;5055839;28;19990;-74
2022/11/30 00:04:18;;;;;;;;;;;;;;;-143.57;100.00;51370.56;5057340;28;19924;-74
2022/11/30 00:06:45;;;;;;;;;;;;;;;-143.57;100.00;51422.25;5051981;28;19929;-73
2022/11/30 00:09:12;;;;;;;;;;;;;;;-143.57;100.00;51370.56;5062597;28;20321;-73
2022/11/30 00:11:39;;;;;;;;;;;;;;;-143.57;100.00;51358.66;5062020;28;19970;-74
2022/11/30 00:14:05;;;;;;;;;;;;;;;-143.57;100.00;51394.44;5063355;28;20616;-74
2022/11/30 00:16:32;;;;;;;;;;;;;;;-143.57;100.00;51402.38;5065477;28;19928;-73
2022/11/30 00:18:59;;;;;;;;;;;;;;;-143.57;100.00;51374.56;5058363;28;20020;-73
2022/11/30 00:21:25;;;;;;;;;;;;;;;-143.57;100.00;51374.56;5057530;28;21096;-74
2022/11/30 00:23:52;;;;;;;;;;;;;;;-143.57;100.00;51394.44;5061274;28;19931;-74
2022/11/30 00:26:21;;;;;;;;;;;;;;;-143.57;100.00;51402.38;5069420;28;19940;-73
2022/11/30 00:28:49;;;;;;;;;;;;;;;-143.57;100.00;51374.56;5063012;28;19942;-73
2022/11/30 00:31:17;;;;;;;;;;;;;;;-143.57;100.00;51378.53;5069387;28;19936;-73
2022/11/30 00:33:44;;;;;;;;;;;;;;;-143.57;100.00;51374.56;5060181;28;19955;-74
2022/11/30 00:36:12;;;;;;;;;;;;;;;-143.57;100.00;51338.78;5062575;28;19968;-73
2022/11/30 00:38:39;;;;;;;;;;;;;;;-143.57;100.00;51378.53;5055977;28;20018;-73
2022/11/30 00:41:06;;;;;;;;;;;;;;;-143.57;100.00;51364.63;5067090;28;20012;-73
2022/11/30 00:43:32;;;;;;;;;;;;;;;-143.57;100.00;51366.59;5059058;28;19924;-74
2022/11/30 00:45:59;;;;;;;;;;;;;;;-143.57;100.00;51386.47;5062286;28;20058;-73
2022/11/30 00:48:26;;;;;;;;;;;;;;;-143.57;100.00;51382.50;5060945;28;19928;-73
2022/11/30 00:50:53;;;;;;;;;;;;;;;-143.57;100.00;51420.28;5061568;28;20014;-73
2022/11/30 00:53:20;;;;;;;;;;;;;;;-143.57;100.00;51392.44;5063576;28;19925;-73
2022/11/30 00:55:48;;;;;;;;;;;;;;;-143.57;100.00;51376.53;5064996;28;19947;-73
2022/11/30 00:58:15;;;;;;;;;;;;;;;-143.57;100.00;51380.50;5070276;28;20038;-73
2022/11/30 01:00:41;;;;;;;;;;;;;;;-143.57;100.00;51382.50;5054047;28;19940;-73
2022/11/30 01:03:08;;;;;;;;;;;;;;;-143.57;100.00;51392.44;5058483;28;19932;-73
2022/11/30 01:05:35;;;;;;;;;;;;;;;-143.57;100.00;51378.53;5057840;28;19936;-74
2022/11/30 01:08:02;;;;;;;;;;;;;;;-143.57;100.00;51382.50;5055824;28;21356;-74
2022/11/30 01:10:29;;;;;;;;;;;;;;;-143.57;100.00;51402.38;5059265;28;19952;-73
2022/11/30 01:12:56;;;;;;;;;;;;;;;-143.57;100.00;51354.66;5060947;28;19929;-73
2022/11/30 01:15:22;;;;;;;;;;;;;;;-143.57;100.00;51418.28;5058522;28;19939;-73
2022/11/30 01:17:50;;;;;;;;;;;;;;;-143.57;100.00;51378.53;5061005;28;20660;-73
2022/11/30 01:20:17;;;;;;;;;;;;;;;-143.57;100.00;51374.56;5061132;28;19928;-73
2022/11/30 01:22:44;;;;;;;;;;;;;;;-143.57;100.00;51386.47;5062266;28;20333;-72
2022/11/30 01:25:11;;;;;;;;;;;;;;;-143.57;100.00;51398.41;5055490;28;19986;-71
2022/11/30 01:27:39;;;;;;;;;;;;;;;-143.57;100.00;51362.63;5063947;28;19951;-71
2022/11/30 01:30:06;;;;;;;;;;;;;;;-143.57;100.00;51400.41;5063362;28;19932;-73
2022/11/30 01:32:32;;;;;;;;;;;;;;;-143.57;100.00;51398.41;5060716;28;20054;-74
2022/11/30 01:34:59;;;;;;;;;;;;;;;-143.57;100.00;51384.50;5061348;28;19960;-73
2022/11/30 01:37:28;;;;;;;;;;;;;;;-143.57;100.00;51362.63;5056653;28;20566;-73
2022/11/30 01:39:55;;;;;;;;;;;;;;;-143.57;100.00;51398.41;5063626;28;21433;-72
2022/11/30 01:42:22;;;;;;;;;;;;;;;-143.57;100.00;51390.47;5060751;28;19947;-73
2022/11/30 01:44:50;;;;;;;;;;;;;;;-143.57;100.00;51392.44;5056594;28;19952;-73
2022/11/30 01:47:19;;;;;;;;;;;;;;;-143.57;100.00;51398.41;5060889;28;19924;-73
2022/11/30 01:49:50;;;;;;;;;;;;;;;-143.57;100.00;51380.50;5056130;28;19943;-71
2022/11/30 01:52:19;;;;;;;;;;;;;;;-143.57;100.00;51396.41;5058476;28;20329;-73
2022/11/30 01:54:52;;;;;;;;;;;;;;;-143.57;100.00;51426.25;5057275;28;19928;-74
2022/11/30 01:57:28;;;;;;;;;;;;;;;-143.57;100.00;51394.44;5054298;28;19924;-73
2022/11/30 01:59:57;;;;;;;;;;;;;;;-143.57;100.00;51360.63;5056562;28;20387;-73
2022/11/30 02:02:47;;;;;;;;;;;;;;;-143.57;100.00;51426.25;5061264;28;19940;-73
2022/11/30 02:05:15;;;;;;;;;;;;;;;-143.57;100.00;51362.63;5065896;28;19928;-74
2022/11/30 02:07:41;;;;;;;;;;;;;;;-143.57;100.00;51368.59;5063315;28;19929;-73
2022/11/30 02:10:12;;;;;;;;;;;;;;;-143.57;100.00;51366.59;5061074;28;19997;-74
2022/11/30 02:12:48;;;;;;;;;;;;;;;-143.57;100.00;51404.38;5062546;28;19999;-74
2022/11/30 02:15:18;;;;;;;;;;;;;;;-143.57;100.00;51418.28;5062690;28;20468;-73
2022/11/30 02:18:04;;;;;;;;;;;;;;;-143.57;100.00;51410.34;5067037;28;20675;-73
2022/11/30 02:20:57;;;;;;;;;;;;;;;-143.57;100.00;51430.22;5056635;28;20578;-73
2022/11/30 02:23:44;;;;;;;;;;;;;;;-143.57;100.00;51362.63;5067553;28;20465;-73
2022/11/30 02:26:11;;;;;;;;;;;;;;;-143.57;100.00;51410.34;5053722;28;19939;-73
2022/11/30 02:28:37;;;;;;;;;;;;;;;-143.57;100.00;51386.47;5065750;28;19993;-73
2022/11/30 02:31:07;;;;;;;;;;;;;;;-143.57;100.00;51370.56;5060647;28;20023;-73
2022/11/30 02:33:34;;;;;;;;;;;;;;;-143.57;100.00;51398.41;5078899;28;20344;-73
2022/11/30 02:36:02;;;;;;;;;;;;;;;-143.57;100.00;51364.63;5056922;28;21474;-74
2022/11/30 02:38:29;;;;;;;;;;;;;;;-143.57;100.00;51426.25;5062934;28;19932;-74
2022/11/30 02:40:56;;;;;;;;;;;;;;;-143.57;100.00;51362.63;5058908;28;20026;-74
2022/11/30 02:43:25;;;;;;;;;;;;;;;-143.57;100.00;51378.53;5056927;28;19930;-73
2022/11/30 02:45:56;;;;;;;;;;;;;;;-143.57;100.00;51434.19;5059040;28;20368;-73
2022/11/30 02:48:28;;;;;;;;;;;;;;;-143.57;100.00;51434.19;5063706;28;19957;-73
2022/11/30 02:51:01;;;;;;;;;;;;;;;-143.57;100.00;51376.53;5058262;28;19932;-74
2022/11/30 02:53:28;;;;;;;;;;;;;;;-143.57;100.00;51374.56;5057991;28;19935;-74
2022/11/30 02:55:55;;;;;;;;;;;;;;;-143.57;100.00;51416.28;5062556;28;19974;-74
2022/11/30 02:58:22;;;;;;;;;;;;;;;-143.57;100.00;51378.53;5063392;28;19924;-74
2022/11/30 03:00:49;;;;;;;;;;;;;;;-143.57;100.00;51432.19;5060867;28;19979;-73
2022/11/30 03:03:15;;;;;;;;;;;;;;;-143.57;100.00;51362.63;5067573;28;19928;-74
2022/11/30 03:05:42;;;;;;;;;;;;;;;-143.57;100.00;51394.44;5068254;28;20047;-73
2022/11/30 03:08:09;;;;;;;;;;;;;;;-143.57;100.00;51362.63;5061559;28;19940;-73
2022/11/30 03:10:36;;;;;;;;;;;;;;;-143.57;100.00;51378.53;5064987;28;19935;-73
2022/11/30 03:13:02;;;;;;;;;;;;;;;-143.57;100.00;51358.66;5066682;28;20409;-74
2022/11/30 03:15:29;;;;;;;;;;;;;;;-143.57;100.00;51366.59;5064812;28;20812;-74
2022/11/30 03:17:59;;;;;;;;;;;;;;;-143.57;100.00;51390.47;5060423;28;19959;-73
2022/11/30 03:20:26;;;;;;;;;;;;;;;-143.57;100.00;51422.25;5064799;28;19932;-73
2022/11/30 03:22:53;;;;;;;;;;;;;;;-143.57;100.00;51390.47;5061618;28;19935;-74
2022/11/30 03:25:19;;;;;;;;;;;;;;;-143.57;100.00;51422.25;5075295;28;19935;-71
2022/11/30 03:27:46;;;;;;;;;;;;;;;-143.57;100.00;51402.38;5068902;28;19924;-74
2022/11/30 03:30:13;;;;;;;;;;;;;;;-143.57;100.00;51374.56;5056242;28;19928;-74
2022/11/30 03:32:39;;;;;;;;;;;;;;;-143.57;100.00;51418.28;5062149;28;19940;-73
2022/11/30 03:35:06;;;;;;;;;;;;;;;-143.57;100.00;51378.53;5066835;28;19994;-73
2022/11/30 03:37:33;;;;;;;;;;;;;;;-143.57;100.00;51402.38;5058442;28;19929;-74
2022/11/30 03:39:59;;;;;;;;;;;;;;;-143.57;100.00;51376.53;5056289;28;21225;-74
2022/11/30 03:42:26;;;;;;;;;;;;;;;-143.57;100.00;51414.31;5036431;28;19924;-73
2022/11/30 03:44:52;;;;;;;;;;;;;;;-143.57;100.00;51392.44;5058611;28;19986;-73
2022/11/30 03:47:19;;;;;;;;;;;;;;;-143.57;100.00;51394.44;5065569;28;19939;-73
2022/11/30 03:49:46;;;;;;;;;;;;;;;-143.57;100.00;51398.41;5062635;28;19967;-74
2022/11/30 03:52:12;;;;;;;;;;;;;;;-143.57;100.00;51406.34;5056756;28;19928;-74
2022/11/30 03:54:39;;;;;;;;;;;;;;;-143.57;100.00;51350.69;5062675;28;21448;-72
2022/11/30 03:57:07;;;;;;;;;;;;;;;-143.57;100.00;51406.34;5055344;28;20243;-73
2022/11/30 03:59:33;;;;;;;;;;;;;;;-143.57;100.00;51390.47;5064584;28;20610;-73
2022/11/30 04:02:00;;;;;;;;;;;;;;;-143.57;100.00;51430.22;5066021;28;19932;-73
2022/11/30 04:04:27;;;;;;;;;;;;;;;-143.57;100.00;51354.66;5060462;28;19939;-73
2022/11/30 04:06:53;;;;;;;;;;;;;;;-143.57;100.00;51386.47;5065535;28;20690;-73
2022/11/30 04:09:20;;;;;;;;;;;;;;;-143.57;100.00;51376.53;5061681;28;19998;-73
2022/11/30 04:11:47;;;;;;;;;;;;;;;-143.57;100.00;51426.25;5056952;28;19925;-73
2022/11/30 04:14:13;;;;;;;;;;;;;;;-143.57;100.00;51422.25;5060536;28;19928;-73
2022/11/30 04:16:40;;;;;;;;;;;;;;;-143.57;100.00;51378.53;5060816;28;19955;-73
2022/11/30 04:19:06;;;;;;;;;;;;;;;-143.57;100.00;51394.44;5062525;28;19932;-73
2022/11/30 04:21:33;;;;;;;;;;;;;;;-143.57;100.00;51418.28;5057276;28;19935;-73
2022/11/30 04:24:00;;;;;;;;;;;;;;;-143.57;100.00;51378.53;5065444;28;19989;-73
2022/11/30 04:26:26;;;;;;;;;;;;;;;-143.57;100.00;51410.34;5065854;28;20019;-73
2022/11/30 04:28:53;;;;;;;;;;;;;;;-143.57;100.00;51402.38;5066559;28;20173;-73
2022/11/30 04:31:20;;;;;;;;;;;;;;;-143.57;100.00;51410.34;5068971;28;20021;-74
2022/11/30 04:33:46;;;;;;;;;;;;;;;-143.57;100.00;51388.47;5059222;28;19962;-74
2022/11/30 04:36:18;;;;;;;;;;;;;;;-143.57;100.00;51406.34;5062794;28;19937;-73
2022/11/30 04:38:45;;;;;;;;;;;;;;;-143.57;100.00;51426.25;5067547;28;19928;-74
2022/11/30 04:41:12;;;;;;;;;;;;;;;-143.57;100.00;51406.34;5070317;28;21449;-73
2022/11/30 04:43:39;;;;;;;;;;;;;;;-143.57;100.00;51414.31;5061015;28;19928;-73
2022/11/30 04:46:06;;;;;;;;;;;;;;;-143.57;100.00;51420.28;5070358;28;19978;-73
2022/11/30 04:48:33;;;;;;;;;;;;;;;-143.57;100.00;51414.31;5062814;28;19990;-73
2022/11/30 04:51:00;;;;;;;;;;;;;;;-143.57;100.00;51406.34;5067285;28;20019;-74
2022/11/30 04:53:27;;;;;;;;;;;;;;;-143.57;100.00;51394.44;5066131;28;20017;-73
2022/11/30 04:55:53;;;;;;;;;;;;;;;-143.57;100.00;51354.66;5076899;28;20023;-74
2022/11/30 04:58:20;;;;;;;;;;;;;;;-143.57;100.00;51366.59;5064955;28;19925;-71
2022/11/30 05:00:47;;;;;;;;;;;;;;;-143.57;100.00;51398.41;5064678;28;19982;-71
2022/11/30 05:03:14;;;;;;;;;;;;;;;-143.57;100.00;51430.22;5066575;28;19936;-73
2022/11/30 05:05:40;;;;;;;;;;;;;;;-143.57;100.00;51426.25;5060561;28;19936;-73
2022/11/30 05:08:08;;;;;;;;;;;;;;;-143.57;100.00;51394.44;5058444;28;19952;-73
2022/11/30 05:10:34;;;;;;;;;;;;;;;-143.57;100.00;51378.53;5061178;28;20564;-73
2022/11/30 05:13:01;;;;;;;;;;;;;;;-143.57;100.00;51406.34;5060440;28;20468;-73
2022/11/30 05:15:28;;;;;;;;;;;;;;;-143.57;100.00;51410.34;5055855;28;19928;-73
2022/11/30 05:17:57;;;;;;;;;;;;;;;-143.57;100.00;51416.28;5064313;28;19990;-73
2022/11/30 05:20:23;;;;;;;;;;;;;;;-143.57;100.00;51426.25;5063585;28;19932;-73
2022/11/30 05:22:50;;;;;;;;;;;;;;;-143.57;100.00;51418.28;5078530;28;19925;-73
2022/11/30 05:25:17;;;;;;;;;;;;;;;-143.57;100.00;51434.19;5063286;28;19931;-73
2022/11/30 05:27:43;;;;;;;;;;;;;;;-143.57;100.00;51376.53;5056979;28;19932;-73
2022/11/30 05:30:10;;;;;;;;;;;;;;;-143.57;100.00;51404.38;5067019;28;19932;-73
2022/11/30 05:32:37;;;;;;;;;;;;;;;-143.57;100.00;51390.47;5055200;28;20688;-73
2022/11/30 05:35:04;;;;;;;;;;;;;;;-143.57;100.00;51414.31;5061876;28;19929;-71
2022/11/30 05:37:30;;;;;;;;;;;;;;;-143.57;100.00;51402.38;5057295;28;19929;-71
2022/11/30 05:39:57;;;;;;;;;;;;;;;-143.57;100.00;51412.31;5060752;28;19924;-72
2022/11/30 05:42:24;;;;;;;;;;;;;;;-143.57;100.00;51376.53;5059592;28;19924;-73
2022/11/30 05:44:51;;;;;;;;;;;;;;;-143.57;100.00;51386.47;5058140;28;19928;-72
2022/11/30 05:47:17;;;;;;;;;;;;;;;-143.57;100.00;51414.31;5060549;28;19924;-72
2022/11/30 05:49:44;;;;;;;;;;;;;;;-143.57;100.00;51364.63;5059697;28;19932;-73
2022/11/30 05:52:11;;;;;;;;;;;;;;;-143.57;100.00;51406.34;5058492;28;19925;-72
2022/11/30 05:54:37;;;;;;;;;;;;;;;-143.57;100.00;51402.38;5059652;28;19924;-72
2022/11/30 05:57:04;;;;;;;;;;;;;;;-143.57;100.00;51424.25;5062193;28;20123;-73
2022/11/30 05:59:31;;;;;;;;;;;;;;;-143.57;100.00;51394.44;5058247;28;19925;-73
2022/11/30 06:01:57;;;;;;;;;;;;;;;-143.57;100.00;51438.16;5061230;28;19962;-73
2022/11/30 06:04:24;;;;;;;;;;;;;;;-143.57;100.00;51398.41;5057359;28;19947;-73
2022/11/30 06:06:54;;;;;;;;;;;;;;;-143.57;100.00;51414.31;5062386;28;19942;-72
2022/11/30 06:09:21;;;;;;;;;;;;;;;-143.57;100.00;51426.25;5057471;28;19929;-72
2022/11/30 06:11:48;;;;;;;;;;;;;;;-143.57;100.00;51378.53;5058726;28;19929;-72
2022/11/30 06:14:16;;;;;;;;;;;;;;;-143.57;100.00;51394.44;5066663;28;19994;-72
2022/11/30 06:16:44;;;;;;;;;;;;;;;-143.57;100.00;51430.22;5061841;28;19928;-72
2022/11/30 06:19:12;;;;;;;;;;;;;;;-143.57;100.00;51404.38;5063283;28;19928;-72
2022/11/30 06:21:39;;;;;;;;;;;;;;;-143.57;100.00;51428.22;5068501;28;19932;-72
2022/11/30 06:24:08;;;;;;;;;;;;;;;-143.57;100.00;51422.25;5062340;28;20021;-71
2022/11/30 06:26:38;;;;;;;;;;;;;;;-143.57;100.00;51372.56;5057901;28;20400;-73
2022/11/30 06:29:05;;;;;;;;;;;;;;;-143.57;100.00;51398.41;5061324;28;20021;-73
2022/11/30 06:31:31;;;;;;;;;;;;;;;-143.57;100.00;51358.66;5064208;28;20470;-73
2022/11/30 06:33:58;;;;;;;;;;;;;;;-143.57;100.00;51384.50;5059274;28;19946;-72
2022/11/30 06:36:25;;;;;;;;;;;;;;;-143.57;100.00;51462.03;5062230;28;19928;-73
2022/11/30 06:39:01;;;;;;;;;;;;;;;-143.57;100.00;51414.31;5064340;28;19932;-73
2022/11/30 06:41:27;;;;;;;;;;;;;;;-143.57;100.00;51430.22;5057265;28;20027;-75
2022/11/30 06:43:54;;;;;;;;;;;;;;;-143.57;100.00;51422.25;5071731;28;19929;-73
2022/11/30 06:46:21;;;;;;;;;;;;;;;-143.57;100.00;51376.53;5055876;28;19928;-73
2022/11/30 06:48:51;;;;;;;;;;;;;;;-143.57;100.00;51344.72;5059160;28;20429;-73
2022/11/30 06:51:18;;;;;;;;;;;;;;;-143.57;100.00;51378.53;5066094;28;19928;-73
2022/11/30 06:53:45;;;;;;;;;;;;;;;-143.57;100.00;51410.34;5060665;28;20444;-72
2022/11/30 06:56:13;;;;;;;;;;;;;;;-143.57;100.00;51434.19;5059530;28;19924;-74
2022/11/30 06:58:40;;;;;;;;;;;;;;;-143.57;100.00;51422.25;5056819;28;19946;-76
2022/11/30 07:01:08;;;;;;;;;;;;;;;-143.57;100.00;51416.28;5057628;28;19937;-74
2022/11/30 07:03:36;;;;;;;;;;;;;;;-143.57;100.00;51430.22;5056469;28;19963;-73
2022/11/30 07:06:10;;;;;;;;;;;;;;;-143.57;100.00;51398.41;5058569;28;21464;-72
2022/11/30 07:08:37;;;;;;;;;;;;;;;-143.57;100.00;51446.13;5056312;28;20514;-73
2022/11/30 07:11:04;;;;;;;;;;;;;;;-143.57;100.00;51414.31;5056703;28;19925;-65
2022/11/30 07:13:31;;;;;;;;;;;;;;;-143.57;100.00;51410.34;5054746;28;19958;-65
2022/11/30 07:15:58;;;;;;;;;;;;;;;-143.57;100.00;51406.34;5059035;28;19937;-65
2022/11/30 07:18:24;;;;;;;;;;;;;;;-143.57;100.00;51380.50;5054832;28;20748;-72
2022/11/30 07:20:58;;;;;;;;;;;;;;;-143.57;100.00;51398.41;5054170;28;20027;-67
2022/11/30 07:26:18;;;;;;;;;;;;;;;-143.57;100.00;51430.22;5058588;28;19936;-65
2022/11/30 07:28:45;;;;;;;;;;;;;;;-143.57;100.00;51416.28;5057284;28;20059;-66
2022/11/30 07:31:13;;;;;;;;;;;;;;;-143.57;100.00;51400.41;5057296;28;19925;-63
2022/11/30 07:33:42;;;;;;;;;;;;;;;-143.57;100.00;51418.28;5057126;28;20172;-64
2022/11/30 07:36:11;;;;;;;;;;;;;;;-143.57;100.00;51418.28;5058220;28;21627;-64
2022/11/30 07:38:38;;;;;;;;;;;;;;;-143.57;100.00;51446.13;5057714;28;20042;-62
2022/11/30 07:41:04;;;;;;;;;;;;;;;-143.57;100.00;51370.56;5052922;28;19928;-61
2022/11/30 07:43:31;;;;;;;;;;;;;;;-143.57;100.00;51422.25;5057478;28;19932;-62
2022/11/30 07:45:59;;;;;;;;;;;;;;;-143.57;100.00;51386.47;5054495;28;20033;-63
2022/11/30 07:48:26;;;;;;;;;;;;;;;-143.57;100.00;51420.28;5061050;28;19962;-62
2022/11/30 07:50:53;;;;;;;;;;;;;;;-143.57;100.00;51422.25;5056555;28;20452;-63
2022/11/30 07:53:19;;;;;;;;;;;;;;;-143.57;100.00;51390.47;5068557;28;20019;-65
2022/11/30 07:55:46;;;;;;;;;;;;;;;-143.57;100.00;51402.38;5055759;28;19928;-65
2022/11/30 07:58:18;;;;;;;;;;;;;;;-143.57;100.00;51414.31;5062622;28;19928;-65
2022/11/30 08:00:45;;;;;;;;;;;;;;;-143.57;100.00;51410.34;5058288;28;20808;-65
2022/11/30 08:03:12;;;;;;;;;;;;;;;-143.57;100.00;51412.31;5059935;28;20019;-63
2022/11/30 08:05:39;;;;;;;;;;;;;;;-143.57;100.00;51400.41;5059711;28;19964;-65
2022/11/30 08:08:05;;;;;;;;;;;;;;;-143.57;100.00;51422.25;5051333;28;20106;-64
2022/11/30 08:10:32;;;;;;;;;;;;;;;-143.57;100.00;51362.63;5060130;28;19982;-64
2022/11/30 08:12:58;;;;;;;;;;;;;;;-143.57;100.00;51398.41;5050353;28;19932;-64
2022/11/30 08:15:25;;;;;;;;;;;;;;;-143.57;100.00;51422.25;5052511;28;19956;-64
2022/11/30 08:18:04;;;;;;;;;;;;;;;-143.57;100.00;51430.22;5051306;28;20024;-64
2022/11/30 08:20:30;;;;;;;;;;;;;;;-143.57;100.00;51412.31;5053203;28;20059;-64
2022/11/30 08:22:57;;;;;;;;;;;;;;;-143.57;100.00;51392.44;5060057;28;20017;-65
2022/11/30 08:25:24;;;;;;;;;;;;;;;-143.57;100.00;51440.16;5050481;28;20035;-65
2022/11/30 08:27:50;;;;;;;;;;;;;;;-143.57;100.00;51366.59;5060510;28;19928;-64
2022/11/30 08:30:18;;;;;;;;;;;;;;;-143.57;100.00;51422.25;5058879;28;20013;-67
2022/11/30 08:32:45;;;;;;;;;;;;;;;-143.57;100.00;51394.44;5058025;28;20046;-70
2022/11/30 08:35:12;;;;;;;;;;;;;;;-143.57;100.00;51394.44;5056356;28;19981;-70
2022/11/30 08:37:38;;;;;;;;;;;;;;;-143.57;100.00;51430.22;5053379;28;20669;-68
2022/11/30 08:40:05;;;;;;;;;;;;;;;-143.57;100.00;51378.53;5061344;28;20130;-67
2022/11/30 08:42:32;;;;;;;;;;;;;;;-143.57;100.00;51426.25;5059526;28;19956;-67
2022/11/30 08:44:59;;;;;;;;;;;;;;;-143.57;100.00;51390.47;5063877;28;19959;-68
2022/11/30 08:47:27;;;;;;;;;;;;;;;-143.57;100.00;51394.44;5059692;28;19970;-67
2022/11/30 08:49:54;;;;;;;;;;;;;;;-143.57;100.00;51390.47;5052749;28;19925;-68
2022/11/30 08:52:20;;;;;;;;;;;;;;;-143.57;100.00;51406.34;5059610;28;19940;-67
2022/11/30 08:54:47;;;;;;;;;;;;;;;-143.57;100.00;51432.19;5051597;28;20230;-67
2022/11/30 08:57:17;;;;;;;;;;;;;;;-143.57;100.00;51402.38;5060449;28;20053;-67
2022/11/30 08:59:43;;;;;;;;;;;;;;;-143.57;100.00;51394.44;5049888;28;19936;-67
2022/11/30 09:02:12;;;;;;;;;;;;;;;-143.57;100.00;51406.34;5052242;28;19929;-67
2022/11/30 09:04:38;;;;;;;;;;;;;;;-143.57;100.00;51402.38;5057677;28;19928;-67
2022/11/30 09:07:08;;;;;;;;;;;;;;;-143.57;100.00;51402.38;5070144;28;19929;-66
2022/11/30 09:09:35;;;;;;;;;;;;;;;-143.57;100.00;51394.44;5069048;28;19985;-65
2022/11/30 09:12:02;;;;;;;;;;;;;;;-143.57;100.00;51422.25;5062434;28;19928;-64
2022/11/30 09:14:29;;;;;;;;;;;;;;;-143.57;100.00;51364.63;5059187;28;20112;-65
2022/11/30 09:16:55;;;;;;;;;;;;;;;-143.57;100.00;51402.38;5053856;28;19935;-66
2022/11/30 09:19:22;;;;;;;;;;;;;;;-143.57;100.00;51390.47;5058655;28;20422;-64
2022/11/30 09:21:49;;;;;;;;;;;;;;;-143.57;100.00;51362.63;5058137;28;20023;-64
2022/11/30 09:24:19;;;;;;;;;;;;;;;-143.57;100.00;51376.53;5056438;28;19940;-64
2022/11/30 09:26:46;;;;;;;;;;;;;;;-143.57;100.00;51400.41;5065114;28;19985;-68
2022/11/30 09:29:12;;;;;;;;;;;;;;;-143.57;100.00;51416.28;5063356;28;20462;-68
2022/11/30 09:31:39;;;;;;;;;;;;;;;-143.57;100.00;51380.50;5064005;28;20687;-68
2022/11/30 09:34:06;;;;;;;;;;;;;;;-143.57;100.00;51342.75;5059804;28;19929;-70
2022/11/30 09:36:32;;;;;;;;;;;;;;;-143.57;100.00;51390.47;5076783;28;20082;-70
2022/11/30 09:38:59;;;;;;;;;;;;;;;-143.57;100.00;51370.56;5078674;28;19928;-66
2022/11/30 09:41:29;;;;;;;;;;;;;;;-143.57;100.00;51410.34;5062365;28;19931;-66
2022/11/30 09:44:07;;;;;;;;;;;;;;;-143.57;100.00;51398.41;5059385;28;19932;-67
2022/11/30 09:46:57;;;;;;;;;;;;;;;-143.57;100.00;51400.41;5059392;28;19935;-67
2022/11/30 09:49:26;;;;;;;;;;;;;;;-143.57;100.00;51362.63;5046721;28;19936;-67
2022/11/30 09:51:55;;;;;;;;;;;;;;;-143.57;100.00;51386.47;5057277;28;19924;-66
2022/11/30 09:54:34;;;;;;;;;;;;;;;-143.57;100.00;51390.47;5063453;28;19928;-67
2022/11/30 09:57:08;;;;;;;;;;;;;;;-143.57;100.00;51432.19;5060119;28;19928;-67
2022/11/30 09:59:36;;;;;;;;;;;;;;;-143.57;100.00;51402.38;5052388;28;19928;-67
2022/11/30 10:02:12;;;;;;;;;;;;;;;-143.57;100.00;51376.53;5061947;28;19959;-66
2022/11/30 10:04:39;;;;;;;;;;;;;;;-143.57;100.00;51378.53;5056446;28;19928;-65
2022/11/30 10:07:09;;;;;;;;;;;;;;;-143.57;100.00;51410.34;5053368;28;19932;-66
2022/11/30 10:09:43;;;;;;;;;;;;;;;-143.57;100.00;51374.56;5057542;28;19929;-67
2022/11/30 10:12:33;;;;;;;;;;;;;;;-143.57;100.00;51370.56;5056972;28;19932;-66
2022/11/30 10:15:06;;;;;;;;;;;;;;;-143.57;100.00;51376.53;5051922;28;20015;-66
2022/11/30 10:17:52;;;;;;;;;;;;;;;-143.57;100.00;51370.56;5056885;28;19928;-67
2022/11/30 10:20:19;;;;;;;;;;;;;;;-143.57;100.00;51402.38;5055405;28;19943;-66
2022/11/30 10:22:45;;;;;;;;;;;;;;;-143.57;100.00;51360.63;5056545;28;20065;-67
2022/11/30 10:25:22;;;;;;;;;;;;;;;-143.57;100.00;51400.41;5057385;28;19929;-68
2022/11/30 10:28:02;;;;;;;;;;;;;;;-143.57;100.00;51366.59;5057819;28;19955;-67
2022/11/30 10:30:48;;;;;;;;;;;;;;;-143.57;100.00;51398.41;5051469;28;20694;-66
2022/11/30 10:33:19;;;;;;;;;;;;;;;-143.57;100.00;51374.56;5050434;28;19924;-65
2022/11/30 10:35:50;;;;;;;;;;;;;;;-143.57;100.00;51406.34;5051794;28;19933;-65
2022/11/30 10:38:21;;;;;;;;;;;;;;;-143.57;100.00;51378.53;5055871;28;19932;-64
2022/11/30 10:41:06;;;;;;;;;;;;;;;-143.57;100.00;51374.56;5047925;28;20541;-65
2022/11/30 10:43:37;;;;;;;;;;;;;;;-143.57;100.00;51386.47;5052705;28;20393;-65
2022/11/30 10:46:04;;;;;;;;;;;;;;;-143.57;100.00;51382.50;5059126;28;20380;-65
2022/11/30 10:48:39;;;;;;;;;;;;;;;-143.57;100.00;51446.13;5057336;28;19929;-65
2022/11/30 10:51:05;;;;;;;;;;;;;;;-143.57;100.00;51402.38;5053774;28;19928;-65
2022/11/30 10:53:33;;;;;;;;;;;;;;;-143.57;100.00;51430.22;5055173;28;19965;-64
2022/11/30 10:56:09;;;;;;;;;;;;;;;-143.57;100.00;51408.34;5057503;28;19928;-65
2022/11/30 10:58:47;;;;;;;;;;;;;;;-143.57;100.00;51378.53;5057844;28;19928;-65
2022/11/30 11:01:31;;;;;;;;;;;;;;;-143.57;100.00;51350.69;5055202;28;19936;-65
2022/11/30 11:04:07;;;;;;;;;;;;;;;-143.57;100.00;51386.47;5056098;28;19928;-65
2022/11/30 11:06:34;;;;;;;;;;;;;;;-143.57;100.00;51390.47;5060467;28;19935;-69
2022/11/30 11:09:20;;;;;;;;;;;;;;;-143.57;100.00;51416.28;5061929;28;19936;-69
2022/11/30 11:11:51;;;;;;;;;;;;;;;-143.57;100.00;51422.25;5058971;28;19974;-66
2022/11/30 11:14:19;;;;;;;;;;;;;;;-143.57;100.00;51412.31;5061928;28;20431;-67
2022/11/30 11:16:50;;;;;;;;;;;;;;;-143.57;100.00;51390.47;5057619;28;19928;-70
2022/11/30 11:19:35;;;;;;;;;;;;;;;-143.57;100.00;51418.28;5055515;28;20620;-65
2022/11/30 11:22:22;;;;;;;;;;;;;;;-143.57;100.00;51400.41;5069515;28;20401;-65
2022/11/30 11:24:50;;;;;;;;;;;;;;;-143.57;100.00;51374.56;5068070;28;19928;-65
2022/11/30 11:27:24;;;;;;;;;;;;;;;-143.57;100.00;51422.25;5067959;28;20447;-66
2022/11/30 11:30:06;;;;;;;;;;;;;;;-143.57;100.00;51392.44;5067296;28;19946;-65
2022/11/30 11:32:33;;;;;;;;;;;;;;;-143.57;100.00;51366.59;5059781;28;20356;-66
2022/11/30 11:35:00;;;;;;;;;;;;;;;-143.57;100.00;51426.25;5068438;28;19982;-65
2022/11/30 11:37:32;;;;;;;;;;;;;;;-143.57;100.00;51390.47;5064073;28;20400;-65
2022/11/30 11:39:59;;;;;;;;;;;;;;;-143.57;100.00;51422.25;5060882;28;20031;-66
2022/11/30 11:42:27;;;;;;;;;;;;;;;-143.57;100.00;51398.41;5060033;28;19924;-65
2022/11/30 11:44:56;;;;;;;;;;;;;;;-143.57;100.00;51362.63;5057598;28;19983;-67
2022/11/30 11:47:25;;;;;;;;;;;;;;;-143.57;100.00;51410.34;5052159;28;19924;-66
2022/11/30 11:50:03;;;;;;;;;;;;;;;-143.57;100.00;51414.31;5056008;28;20381;-68
2022/11/30 11:52:30;;;;;;;;;;;;;;;-143.57;100.00;51394.44;5058341;28;19936;-66
2022/11/30 11:55:02;;;;;;;;;;;;;;;-143.57;100.00;51410.34;5061324;28;19929;-65
2022/11/30 11:57:35;;;;;;;;;;;;;;;-143.57;100.00;51368.59;5058828;28;19989;-67
2022/11/30 12:00:01;;;;;;;;;;;;;;;-143.57;100.00;51382.50;5061731;28;20341;-67
2022/11/30 12:02:48;;;;;;;;;;;;;;;-143.57;100.00;51380.50;5061843;28;19950;-67
2022/11/30 12:05:18;;;;;;;;;;;;;;;-143.57;100.00;51416.28;5057188;28;20044;-66
2022/11/30 12:07:55;;;;;;;;;;;;;;;-143.57;100.00;51374.56;5059080;28;19932;-67
2022/11/30 12:10:35;;;;;;;;;;;;;;;-143.57;100.00;51398.41;5055702;28;20007;-67
2022/11/30 12:13:21;;;;;;;;;;;;;;;-143.57;100.00;51378.53;5063172;28;19924;-66
2022/11/30 12:16:06;;;;;;;;;;;;;;;-143.57;100.00;51398.41;5064453;28;19936;-66
2022/11/30 12:18:52;;;;;;;;;;;;;;;-143.57;100.00;51422.25;5060527;28;19932;-67
2022/11/30 12:21:27;;;;;;;;;;;;;;;-143.57;100.00;51364.63;5073654;28;19967;-66
2022/11/30 12:24:02;;;;;;;;;;;;;;;-143.57;100.00;51374.56;5062347;28;19955;-66
2022/11/30 12:26:32;;;;;;;;;;;;;;;-143.57;100.00;51402.38;5063330;28;19966;-67
2022/11/30 12:29:17;;;;;;;;;;;;;;;-143.57;100.00;51420.28;5056980;28;20330;-67
2022/11/30 12:32:04;;;;;;;;;;;;;;;-143.57;100.00;51376.53;5057577;28;19998;-71